sensor_id;sensor_type;location;lat;lon;timestamp;P1;durP1;ratioP1;P2;durP2;ratioP2
16832;SDS011;8533;48.426;10.868;2023-06-26T00:00:12;9.73;;;6.30;;
16832;SDS011;8533;48.426;10.868;2023-06-26T00:02:38;10.17;;;5.90;;
16832;SDS011;8533;48.426;10.868;2023-06-26T00:05:03;9.13;;;6.07;;
16832;SDS011;8533;48.426;10.868;2023-06-26T00:07:30;11.17;;;6.37;;
16832;SDS011;8533;48.426;10.868;2023-06-26T00:09:56;11.70;;;6.60;;
16832;SDS011;8533;48.426;10.868;2023-06-26T00:12:22;10.10;;;6.60;;
16832;SDS011;8533;48.426;10.868;2023-06-26T00:14:47;11.20;;;5.93;;
16832;SDS011;8533;48.426;10.868;2023-06-26T00:17:12;9.97;;;6.53;;
16832;SDS011;8533;48.426;10.868;2023-06-26T00:19:38;8.93;;;6.17;;
16832;SDS011;8533;48.426;10.868;2023-06-26T00:22:03;10.70;;;6.40;;
16832;SDS011;8533;48.426;10.868;2023-06-26T00:24:28;11.10;;;6.70;;
16832;SDS011;8533;48.426;10.868;2023-06-26T00:26:54;10.03;;;6.47;;
16832;SDS011;8533;48.426;10.868;2023-06-26T00:29:19;8.97;;;5.30;;
16832;SDS011;8533;48.426;10.868;2023-06-26T00:31:44;10.27;;;6.03;;
16832;SDS011;8533;48.426;10.868;2023-06-26T00:34:09;13.77;;;6.77;;
16832;SDS011;8533;48.426;10.868;2023-06-26T00:36:35;9.37;;;6.20;;
16832;SDS011;8533;48.426;10.868;2023-06-26T00:39:00;9.97;;;6.10;;
16832;SDS011;8533;48.426;10.868;2023-06-26T00:41:25;10.50;;;6.60;;
16832;SDS011;8533;48.426;10.868;2023-06-26T00:43:51;10.57;;;6.50;;
16832;SDS011;8533;48.426;10.868;2023-06-26T00:46:16;11.77;;;6.40;;
16832;SDS011;8533;48.426;10.868;2023-06-26T00:48:42;10.77;;;6.47;;
16832;SDS011;8533;48.426;10.868;2023-06-26T00:51:09;10.90;;;6.57;;
16832;SDS011;8533;48.426;10.868;2023-06-26T00:53:35;12.63;;;6.80;;
16832;SDS011;8533;48.426;10.868;2023-06-26T00:56:00;10.83;;;7.10;;
16832;SDS011;8533;48.426;10.868;2023-06-26T00:58:27;10.73;;;6.53;;
16832;SDS011;8533;48.426;10.868;2023-06-26T01:00:52;10.87;;;6.67;;
16832;SDS011;8533;48.426;10.868;2023-06-26T01:03:22;11.33;;;6.53;;
16832;SDS011;8533;48.426;10.868;2023-06-26T01:05:48;10.90;;;5.90;;
16832;SDS011;8533;48.426;10.868;2023-06-26T01:08:15;10.67;;;6.40;;
16832;SDS011;8533;48.426;10.868;2023-06-26T01:10:41;10.73;;;6.90;;
16832;SDS011;8533;48.426;10.868;2023-06-26T01:13:07;12.67;;;6.47;;
16832;SDS011;8533;48.426;10.868;2023-06-26T01:15:33;12.50;;;6.90;;
16832;SDS011;8533;48.426;10.868;2023-06-26T01:17:59;10.53;;;6.73;;
16832;SDS011;8533;48.426;10.868;2023-06-26T01:20:28;11.67;;;6.80;;
16832;SDS011;8533;48.426;10.868;2023-06-26T01:23:06;12.03;;;7.03;;
16832;SDS011;8533;48.426;10.868;2023-06-26T01:26:28;11.17;;;7.03;;
16832;SDS011;8533;48.426;10.868;2023-06-26T01:28:34;9.43;;;6.23;;
16832;SDS011;8533;48.426;10.868;2023-06-26T01:31:00;9.10;;;6.37;;
16832;SDS011;8533;48.426;10.868;2023-06-26T01:33:28;11.33;;;6.13;;
16832;SDS011;8533;48.426;10.868;2023-06-26T01:35:53;10.50;;;6.67;;
16832;SDS011;8533;48.426;10.868;2023-06-26T01:38:20;13.13;;;6.80;;
16832;SDS011;8533;48.426;10.868;2023-06-26T01:40:46;11.07;;;6.83;;
16832;SDS011;8533;48.426;10.868;2023-06-26T01:43:19;9.60;;;6.77;;
16832;SDS011;8533;48.426;10.868;2023-06-26T01:45:51;10.47;;;6.60;;
16832;SDS011;8533;48.426;10.868;2023-06-26T01:48:24;11.93;;;6.50;;
16832;SDS011;8533;48.426;10.868;2023-06-26T01:50:56;10.97;;;6.50;;
16832;SDS011;8533;48.426;10.868;2023-06-26T01:53:24;10.47;;;6.57;;
16832;SDS011;8533;48.426;10.868;2023-06-26T01:56:02;14.37;;;6.97;;
16832;SDS011;8533;48.426;10.868;2023-06-26T01:58:32;12.37;;;6.90;;
16832;SDS011;8533;48.426;10.868;2023-06-26T02:00:59;10.73;;;6.70;;
16832;SDS011;8533;48.426;10.868;2023-06-26T02:03:25;9.10;;;6.40;;
16832;SDS011;8533;48.426;10.868;2023-06-26T02:05:50;11.73;;;6.53;;
16832;SDS011;8533;48.426;10.868;2023-06-26T02:08:16;10.20;;;6.60;;
16832;SDS011;8533;48.426;10.868;2023-06-26T02:10:41;14.00;;;7.23;;
16832;SDS011;8533;48.426;10.868;2023-06-26T02:13:07;11.47;;;7.23;;
16832;SDS011;8533;48.426;10.868;2023-06-26T02:15:32;9.97;;;6.50;;
16832;SDS011;8533;48.426;10.868;2023-06-26T02:17:57;11.60;;;6.63;;
16832;SDS011;8533;48.426;10.868;2023-06-26T02:20:22;12.40;;;7.27;;
16832;SDS011;8533;48.426;10.868;2023-06-26T02:22:48;12.43;;;7.10;;
16832;SDS011;8533;48.426;10.868;2023-06-26T02:25:13;12.60;;;7.13;;
16832;SDS011;8533;48.426;10.868;2023-06-26T02:27:39;12.93;;;7.40;;
16832;SDS011;8533;48.426;10.868;2023-06-26T02:30:04;14.57;;;6.83;;
16832;SDS011;8533;48.426;10.868;2023-06-26T02:32:30;12.83;;;7.43;;
16832;SDS011;8533;48.426;10.868;2023-06-26T02:34:55;10.30;;;6.37;;
16832;SDS011;8533;48.426;10.868;2023-06-26T02:37:21;12.40;;;6.73;;
16832;SDS011;8533;48.426;10.868;2023-06-26T02:39:46;10.33;;;6.67;;
16832;SDS011;8533;48.426;10.868;2023-06-26T02:42:11;11.73;;;7.47;;
16832;SDS011;8533;48.426;10.868;2023-06-26T02:44:37;10.70;;;6.63;;
16832;SDS011;8533;48.426;10.868;2023-06-26T02:47:02;11.23;;;7.17;;
16832;SDS011;8533;48.426;10.868;2023-06-26T02:49:28;15.33;;;7.30;;
16832;SDS011;8533;48.426;10.868;2023-06-26T02:51:53;13.33;;;7.43;;
16832;SDS011;8533;48.426;10.868;2023-06-26T02:54:18;11.97;;;7.17;;
16832;SDS011;8533;48.426;10.868;2023-06-26T02:56:43;12.40;;;7.43;;
16832;SDS011;8533;48.426;10.868;2023-06-26T02:59:09;13.70;;;7.40;;
16832;SDS011;8533;48.426;10.868;2023-06-26T03:01:34;13.90;;;6.97;;
16832;SDS011;8533;48.426;10.868;2023-06-26T03:03:59;14.07;;;7.80;;
16832;SDS011;8533;48.426;10.868;2023-06-26T03:06:25;13.87;;;7.70;;
16832;SDS011;8533;48.426;10.868;2023-06-26T03:08:52;14.77;;;7.90;;
16832;SDS011;8533;48.426;10.868;2023-06-26T03:11:18;16.23;;;7.80;;
16832;SDS011;8533;48.426;10.868;2023-06-26T03:13:44;13.53;;;7.83;;
16832;SDS011;8533;48.426;10.868;2023-06-26T03:16:09;12.87;;;7.53;;
16832;SDS011;8533;48.426;10.868;2023-06-26T03:18:35;14.03;;;8.13;;
16832;SDS011;8533;48.426;10.868;2023-06-26T03:21:00;20.50;;;8.70;;
16832;SDS011;8533;48.426;10.868;2023-06-26T03:23:25;14.00;;;7.63;;
16832;SDS011;8533;48.426;10.868;2023-06-26T03:25:51;14.83;;;8.63;;
16832;SDS011;8533;48.426;10.868;2023-06-26T03:28:16;14.47;;;8.17;;
16832;SDS011;8533;48.426;10.868;2023-06-26T03:30:42;19.03;;;8.20;;
16832;SDS011;8533;48.426;10.868;2023-06-26T03:33:07;14.20;;;8.03;;
16832;SDS011;8533;48.426;10.868;2023-06-26T03:35:32;13.60;;;8.60;;
16832;SDS011;8533;48.426;10.868;2023-06-26T03:37:58;14.93;;;8.57;;
16832;SDS011;8533;48.426;10.868;2023-06-26T03:40:23;18.53;;;9.20;;
16832;SDS011;8533;48.426;10.868;2023-06-26T03:42:49;12.87;;;7.67;;
16832;SDS011;8533;48.426;10.868;2023-06-26T03:45:14;13.60;;;7.93;;
16832;SDS011;8533;48.426;10.868;2023-06-26T03:47:40;14.03;;;8.30;;
16832;SDS011;8533;48.426;10.868;2023-06-26T03:50:05;15.53;;;8.23;;
16832;SDS011;8533;48.426;10.868;2023-06-26T03:52:31;13.80;;;8.20;;
16832;SDS011;8533;48.426;10.868;2023-06-26T03:54:59;12.37;;;7.60;;
16832;SDS011;8533;48.426;10.868;2023-06-26T03:57:25;12.60;;;7.53;;
16832;SDS011;8533;48.426;10.868;2023-06-26T03:59:51;15.03;;;8.67;;
16832;SDS011;8533;48.426;10.868;2023-06-26T04:02:17;12.43;;;7.53;;
16832;SDS011;8533;48.426;10.868;2023-06-26T04:04:42;14.83;;;8.27;;
16832;SDS011;8533;48.426;10.868;2023-06-26T04:07:08;12.97;;;7.23;;
16832;SDS011;8533;48.426;10.868;2023-06-26T04:09:33;13.87;;;8.10;;
16832;SDS011;8533;48.426;10.868;2023-06-26T04:11:58;13.60;;;7.90;;
16832;SDS011;8533;48.426;10.868;2023-06-26T04:14:24;15.37;;;7.57;;
16832;SDS011;8533;48.426;10.868;2023-06-26T04:16:49;14.70;;;7.33;;
16832;SDS011;8533;48.426;10.868;2023-06-26T04:19:14;14.47;;;7.90;;
16832;SDS011;8533;48.426;10.868;2023-06-26T04:21:40;15.23;;;7.73;;
16832;SDS011;8533;48.426;10.868;2023-06-26T04:24:05;12.60;;;7.77;;
16832;SDS011;8533;48.426;10.868;2023-06-26T04:26:30;14.30;;;7.63;;
16832;SDS011;8533;48.426;10.868;2023-06-26T04:28:56;12.97;;;7.80;;
16832;SDS011;8533;48.426;10.868;2023-06-26T04:31:21;13.63;;;7.67;;
16832;SDS011;8533;48.426;10.868;2023-06-26T04:33:47;18.43;;;8.00;;
16832;SDS011;8533;48.426;10.868;2023-06-26T04:36:16;12.13;;;7.57;;
16832;SDS011;8533;48.426;10.868;2023-06-26T04:38:41;16.57;;;7.60;;
16832;SDS011;8533;48.426;10.868;2023-06-26T04:41:07;12.10;;;7.57;;
16832;SDS011;8533;48.426;10.868;2023-06-26T04:43:32;11.33;;;7.30;;
16832;SDS011;8533;48.426;10.868;2023-06-26T04:45:57;11.57;;;6.87;;
16832;SDS011;8533;48.426;10.868;2023-06-26T04:48:23;13.20;;;7.63;;
16832;SDS011;8533;48.426;10.868;2023-06-26T04:50:48;11.90;;;7.27;;
16832;SDS011;8533;48.426;10.868;2023-06-26T04:53:19;14.83;;;7.63;;
16832;SDS011;8533;48.426;10.868;2023-06-26T04:55:47;15.23;;;7.43;;
16832;SDS011;8533;48.426;10.868;2023-06-26T04:58:13;11.27;;;6.53;;
16832;SDS011;8533;48.426;10.868;2023-06-26T05:00:39;10.17;;;6.47;;
16832;SDS011;8533;48.426;10.868;2023-06-26T05:03:07;12.43;;;7.23;;
16832;SDS011;8533;48.426;10.868;2023-06-26T05:05:32;12.00;;;7.20;;
16832;SDS011;8533;48.426;10.868;2023-06-26T05:07:57;11.37;;;6.83;;
16832;SDS011;8533;48.426;10.868;2023-06-26T05:10:23;13.07;;;6.60;;
16832;SDS011;8533;48.426;10.868;2023-06-26T05:12:48;10.60;;;6.50;;
16832;SDS011;8533;48.426;10.868;2023-06-26T05:15:13;12.53;;;6.83;;
16832;SDS011;8533;48.426;10.868;2023-06-26T05:17:39;14.63;;;7.10;;
16832;SDS011;8533;48.426;10.868;2023-06-26T05:20:04;11.40;;;6.93;;
16832;SDS011;8533;48.426;10.868;2023-06-26T05:22:30;10.43;;;6.30;;
16832;SDS011;8533;48.426;10.868;2023-06-26T05:24:57;11.17;;;6.60;;
16832;SDS011;8533;48.426;10.868;2023-06-26T05:27:25;11.67;;;6.67;;
16832;SDS011;8533;48.426;10.868;2023-06-26T05:29:51;12.40;;;7.10;;
16832;SDS011;8533;48.426;10.868;2023-06-26T05:32:16;11.77;;;7.00;;
16832;SDS011;8533;48.426;10.868;2023-06-26T05:34:46;11.63;;;6.50;;
16832;SDS011;8533;48.426;10.868;2023-06-26T05:37:14;11.97;;;6.60;;
16832;SDS011;8533;48.426;10.868;2023-06-26T05:39:45;11.47;;;6.47;;
16832;SDS011;8533;48.426;10.868;2023-06-26T05:42:11;11.37;;;6.80;;
16832;SDS011;8533;48.426;10.868;2023-06-26T05:44:37;10.10;;;6.43;;
16832;SDS011;8533;48.426;10.868;2023-06-26T05:47:02;10.20;;;5.90;;
16832;SDS011;8533;48.426;10.868;2023-06-26T05:49:27;9.03;;;6.30;;
16832;SDS011;8533;48.426;10.868;2023-06-26T05:51:53;12.40;;;6.20;;
16832;SDS011;8533;48.426;10.868;2023-06-26T05:54:18;12.30;;;6.73;;
16832;SDS011;8533;48.426;10.868;2023-06-26T05:56:44;12.77;;;6.20;;
16832;SDS011;8533;48.426;10.868;2023-06-26T05:59:10;9.10;;;5.93;;
16832;SDS011;8533;48.426;10.868;2023-06-26T06:01:36;11.37;;;6.23;;
16832;SDS011;8533;48.426;10.868;2023-06-26T06:04:02;13.60;;;6.60;;
16832;SDS011;8533;48.426;10.868;2023-06-26T06:06:27;10.50;;;6.90;;
16832;SDS011;8533;48.426;10.868;2023-06-26T06:08:52;10.87;;;6.20;;
16832;SDS011;8533;48.426;10.868;2023-06-26T06:11:17;9.97;;;6.30;;
16832;SDS011;8533;48.426;10.868;2023-06-26T06:13:43;11.47;;;6.70;;
16832;SDS011;8533;48.426;10.868;2023-06-26T06:16:08;11.33;;;6.60;;
16832;SDS011;8533;48.426;10.868;2023-06-26T06:18:33;10.17;;;6.70;;
16832;SDS011;8533;48.426;10.868;2023-06-26T06:20:59;11.00;;;6.57;;
16832;SDS011;8533;48.426;10.868;2023-06-26T06:23:27;9.63;;;6.40;;
16832;SDS011;8533;48.426;10.868;2023-06-26T06:25:52;12.63;;;6.60;;
16832;SDS011;8533;48.426;10.868;2023-06-26T06:28:17;13.00;;;6.80;;
16832;SDS011;8533;48.426;10.868;2023-06-26T06:30:43;11.03;;;6.70;;
16832;SDS011;8533;48.426;10.868;2023-06-26T06:33:08;11.10;;;6.07;;
16832;SDS011;8533;48.426;10.868;2023-06-26T06:35:33;11.60;;;6.90;;
16832;SDS011;8533;48.426;10.868;2023-06-26T06:37:58;10.00;;;5.70;;
16832;SDS011;8533;48.426;10.868;2023-06-26T06:40:24;12.83;;;6.37;;
16832;SDS011;8533;48.426;10.868;2023-06-26T06:42:50;9.03;;;5.93;;
16832;SDS011;8533;48.426;10.868;2023-06-26T06:45:16;10.40;;;6.57;;
16832;SDS011;8533;48.426;10.868;2023-06-26T06:47:41;7.27;;;5.70;;
16832;SDS011;8533;48.426;10.868;2023-06-26T06:50:06;9.73;;;6.43;;
16832;SDS011;8533;48.426;10.868;2023-06-26T06:52:35;10.30;;;6.63;;
16832;SDS011;8533;48.426;10.868;2023-06-26T06:55:05;9.27;;;5.97;;
16832;SDS011;8533;48.426;10.868;2023-06-26T06:57:33;9.10;;;5.60;;
16832;SDS011;8533;48.426;10.868;2023-06-26T07:00:03;8.70;;;5.57;;
16832;SDS011;8533;48.426;10.868;2023-06-26T07:02:29;10.93;;;6.40;;
16832;SDS011;8533;48.426;10.868;2023-06-26T07:04:55;9.60;;;6.20;;
16832;SDS011;8533;48.426;10.868;2023-06-26T07:07:20;11.33;;;5.90;;
16832;SDS011;8533;48.426;10.868;2023-06-26T07:09:46;11.67;;;5.77;;
16832;SDS011;8533;48.426;10.868;2023-06-26T07:12:11;11.97;;;5.97;;
16832;SDS011;8533;48.426;10.868;2023-06-26T07:14:36;8.43;;;5.80;;
16832;SDS011;8533;48.426;10.868;2023-06-26T07:17:01;9.03;;;5.97;;
16832;SDS011;8533;48.426;10.868;2023-06-26T07:19:27;10.23;;;6.10;;
16832;SDS011;8533;48.426;10.868;2023-06-26T07:21:52;7.53;;;5.73;;
16832;SDS011;8533;48.426;10.868;2023-06-26T07:24:17;9.20;;;6.50;;
16832;SDS011;8533;48.426;10.868;2023-06-26T07:26:43;10.10;;;6.13;;
16832;SDS011;8533;48.426;10.868;2023-06-26T07:29:08;7.30;;;5.73;;
16832;SDS011;8533;48.426;10.868;2023-06-26T07:31:33;9.20;;;6.13;;
16832;SDS011;8533;48.426;10.868;2023-06-26T07:33:59;10.63;;;6.23;;
16832;SDS011;8533;48.426;10.868;2023-06-26T07:36:24;8.10;;;5.60;;
16832;SDS011;8533;48.426;10.868;2023-06-26T07:38:49;9.60;;;6.20;;
16832;SDS011;8533;48.426;10.868;2023-06-26T07:41:15;10.70;;;5.97;;
16832;SDS011;8533;48.426;10.868;2023-06-26T07:43:40;8.47;;;6.07;;
16832;SDS011;8533;48.426;10.868;2023-06-26T07:46:05;14.13;;;5.50;;
16832;SDS011;8533;48.426;10.868;2023-06-26T07:48:31;12.73;;;6.23;;
16832;SDS011;8533;48.426;10.868;2023-06-26T07:50:56;8.43;;;5.80;;
16832;SDS011;8533;48.426;10.868;2023-06-26T07:53:21;8.00;;;5.93;;
16832;SDS011;8533;48.426;10.868;2023-06-26T07:55:46;10.07;;;6.13;;
16832;SDS011;8533;48.426;10.868;2023-06-26T07:58:12;10.93;;;6.37;;
16832;SDS011;8533;48.426;10.868;2023-06-26T08:00:37;9.17;;;5.70;;
16832;SDS011;8533;48.426;10.868;2023-06-26T08:03:03;9.80;;;6.33;;
16832;SDS011;8533;48.426;10.868;2023-06-26T08:05:28;8.87;;;6.10;;
16832;SDS011;8533;48.426;10.868;2023-06-26T08:07:54;9.60;;;5.57;;
16832;SDS011;8533;48.426;10.868;2023-06-26T08:10:19;9.73;;;6.30;;
16832;SDS011;8533;48.426;10.868;2023-06-26T08:12:44;9.00;;;6.37;;
16832;SDS011;8533;48.426;10.868;2023-06-26T08:15:10;7.53;;;5.67;;
16832;SDS011;8533;48.426;10.868;2023-06-26T08:17:36;11.47;;;6.37;;
16832;SDS011;8533;48.426;10.868;2023-06-26T08:20:02;8.17;;;5.37;;
16832;SDS011;8533;48.426;10.868;2023-06-26T08:22:28;7.70;;;5.47;;
16832;SDS011;8533;48.426;10.868;2023-06-26T08:24:54;7.90;;;6.30;;
16832;SDS011;8533;48.426;10.868;2023-06-26T08:27:19;6.77;;;5.57;;
16832;SDS011;8533;48.426;10.868;2023-06-26T08:29:44;7.80;;;5.90;;
16832;SDS011;8533;48.426;10.868;2023-06-26T08:32:09;8.37;;;5.70;;
16832;SDS011;8533;48.426;10.868;2023-06-26T08:34:35;7.57;;;5.80;;
16832;SDS011;8533;48.426;10.868;2023-06-26T08:37:00;7.37;;;5.90;;
16832;SDS011;8533;48.426;10.868;2023-06-26T08:39:25;7.10;;;5.87;;
16832;SDS011;8533;48.426;10.868;2023-06-26T08:41:51;9.03;;;5.43;;
16832;SDS011;8533;48.426;10.868;2023-06-26T08:44:17;6.83;;;5.30;;
16832;SDS011;8533;48.426;10.868;2023-06-26T08:46:42;7.87;;;5.40;;
16832;SDS011;8533;48.426;10.868;2023-06-26T08:49:12;8.47;;;5.80;;
16832;SDS011;8533;48.426;10.868;2023-06-26T08:51:43;7.07;;;5.23;;
16832;SDS011;8533;48.426;10.868;2023-06-26T08:54:14;5.53;;;4.90;;
16832;SDS011;8533;48.426;10.868;2023-06-26T08:56:42;7.47;;;5.03;;
16832;SDS011;8533;48.426;10.868;2023-06-26T08:59:11;6.13;;;5.00;;
16832;SDS011;8533;48.426;10.868;2023-06-26T09:01:39;6.27;;;4.83;;
16832;SDS011;8533;48.426;10.868;2023-06-26T09:04:05;5.80;;;4.87;;
16832;SDS011;8533;48.426;10.868;2023-06-26T09:06:31;7.63;;;5.20;;
16832;SDS011;8533;48.426;10.868;2023-06-26T09:08:57;6.53;;;5.53;;
16832;SDS011;8533;48.426;10.868;2023-06-26T09:11:22;7.10;;;5.60;;
16832;SDS011;8533;48.426;10.868;2023-06-26T09:13:47;8.60;;;5.90;;
16832;SDS011;8533;48.426;10.868;2023-06-26T09:16:13;7.60;;;5.17;;
16832;SDS011;8533;48.426;10.868;2023-06-26T09:18:40;7.00;;;5.40;;
16832;SDS011;8533;48.426;10.868;2023-06-26T09:21:06;6.10;;;5.10;;
16832;SDS011;8533;48.426;10.868;2023-06-26T09:23:35;5.63;;;4.63;;
16832;SDS011;8533;48.426;10.868;2023-06-26T09:26:07;7.63;;;5.20;;
16832;SDS011;8533;48.426;10.868;2023-06-26T09:28:32;11.90;;;4.97;;
16832;SDS011;8533;48.426;10.868;2023-06-26T09:31:07;7.13;;;4.70;;
16832;SDS011;8533;48.426;10.868;2023-06-26T09:33:33;5.70;;;4.80;;
16832;SDS011;8533;48.426;10.868;2023-06-26T09:36:01;5.50;;;4.70;;
16832;SDS011;8533;48.426;10.868;2023-06-26T09:38:26;5.23;;;4.63;;
16832;SDS011;8533;48.426;10.868;2023-06-26T09:40:52;6.60;;;5.10;;
16832;SDS011;8533;48.426;10.868;2023-06-26T09:43:17;4.73;;;4.33;;
16832;SDS011;8533;48.426;10.868;2023-06-26T09:45:44;5.33;;;4.60;;
16832;SDS011;8533;48.426;10.868;2023-06-26T09:48:09;5.63;;;4.93;;
16832;SDS011;8533;48.426;10.868;2023-06-26T09:50:35;5.23;;;4.37;;
16832;SDS011;8533;48.426;10.868;2023-06-26T09:53:12;6.77;;;4.57;;
16832;SDS011;8533;48.426;10.868;2023-06-26T09:55:39;5.20;;;4.30;;
16832;SDS011;8533;48.426;10.868;2023-06-26T09:58:09;5.60;;;4.90;;
16832;SDS011;8533;48.426;10.868;2023-06-26T10:00:39;5.83;;;4.60;;
16832;SDS011;8533;48.426;10.868;2023-06-26T10:03:05;5.10;;;4.57;;
16832;SDS011;8533;48.426;10.868;2023-06-26T10:05:30;6.17;;;4.70;;
16832;SDS011;8533;48.426;10.868;2023-06-26T10:07:55;5.20;;;4.57;;
16832;SDS011;8533;48.426;10.868;2023-06-26T10:10:22;5.33;;;4.40;;
16832;SDS011;8533;48.426;10.868;2023-06-26T10:12:48;5.27;;;4.33;;
16832;SDS011;8533;48.426;10.868;2023-06-26T10:15:15;5.10;;;4.27;;
16832;SDS011;8533;48.426;10.868;2023-06-26T10:17:42;5.50;;;4.37;;
16832;SDS011;8533;48.426;10.868;2023-06-26T10:20:08;6.20;;;4.73;;
16832;SDS011;8533;48.426;10.868;2023-06-26T10:22:36;6.57;;;4.53;;
16832;SDS011;8533;48.426;10.868;2023-06-26T10:25:06;5.37;;;4.70;;
16832;SDS011;8533;48.426;10.868;2023-06-26T10:27:34;4.90;;;4.40;;
16832;SDS011;8533;48.426;10.868;2023-06-26T10:30:03;5.30;;;4.60;;
16832;SDS011;8533;48.426;10.868;2023-06-26T10:32:31;5.82;;;4.85;;
16832;SDS011;8533;48.426;10.868;2023-06-26T10:34:57;5.10;;;4.57;;
16832;SDS011;8533;48.426;10.868;2023-06-26T10:37:42;12.20;;;4.40;;
16832;SDS011;8533;48.426;10.868;2023-06-26T10:40:11;4.90;;;4.27;;
16832;SDS011;8533;48.426;10.868;2023-06-26T10:42:39;5.13;;;4.57;;
16832;SDS011;8533;48.426;10.868;2023-06-26T10:45:13;5.77;;;4.87;;
16832;SDS011;8533;48.426;10.868;2023-06-26T10:47:42;5.60;;;4.97;;
16832;SDS011;8533;48.426;10.868;2023-06-26T10:53:07;5.87;;;4.47;;
16832;SDS011;8533;48.426;10.868;2023-06-26T10:55:41;5.30;;;4.53;;
16832;SDS011;8533;48.426;10.868;2023-06-26T11:03:36;6.63;;;4.87;;
16832;SDS011;8533;48.426;10.868;2023-06-26T11:06:08;5.87;;;4.50;;
16832;SDS011;8533;48.426;10.868;2023-06-26T11:08:53;6.60;;;4.37;;
16832;SDS011;8533;48.426;10.868;2023-06-26T11:11:55;6.93;;;5.13;;
16832;SDS011;8533;48.426;10.868;2023-06-26T11:14:25;6.93;;;5.30;;
16832;SDS011;8533;48.426;10.868;2023-06-26T11:16:52;8.23;;;4.87;;
16832;SDS011;8533;48.426;10.868;2023-06-26T11:19:18;6.83;;;5.03;;
16832;SDS011;8533;48.426;10.868;2023-06-26T11:21:44;7.13;;;5.43;;
16832;SDS011;8533;48.426;10.868;2023-06-26T11:24:10;6.57;;;5.40;;
16832;SDS011;8533;48.426;10.868;2023-06-26T11:26:40;7.50;;;5.47;;
16832;SDS011;8533;48.426;10.868;2023-06-26T11:29:07;5.20;;;4.70;;
16832;SDS011;8533;48.426;10.868;2023-06-26T11:31:34;7.10;;;5.13;;
16832;SDS011;8533;48.426;10.868;2023-06-26T11:34:02;7.70;;;4.60;;
16832;SDS011;8533;48.426;10.868;2023-06-26T11:36:36;6.72;;;4.65;;
16832;SDS011;8533;48.426;10.868;2023-06-26T11:39:03;6.68;;;5.13;;
16832;SDS011;8533;48.426;10.868;2023-06-26T11:41:31;7.25;;;5.25;;
16832;SDS011;8533;48.426;10.868;2023-06-26T11:44:10;5.40;;;4.75;;
16832;SDS011;8533;48.426;10.868;2023-06-26T11:46:35;7.22;;;4.93;;
16832;SDS011;8533;48.426;10.868;2023-06-26T11:49:05;4.55;;;4.05;;
16832;SDS011;8533;48.426;10.868;2023-06-26T11:51:31;4.95;;;4.43;;
16832;SDS011;8533;48.426;10.868;2023-06-26T11:53:57;5.35;;;4.85;;
16832;SDS011;8533;48.426;10.868;2023-06-26T11:56:23;6.10;;;4.63;;
16832;SDS011;8533;48.426;10.868;2023-06-26T11:59:05;5.80;;;4.43;;
16832;SDS011;8533;48.426;10.868;2023-06-26T12:04:02;5.65;;;4.70;;
16832;SDS011;8533;48.426;10.868;2023-06-26T12:06:33;5.43;;;3.97;;
16832;SDS011;8533;48.426;10.868;2023-06-26T12:09:00;5.03;;;4.50;;
16832;SDS011;8533;48.426;10.868;2023-06-26T12:11:28;5.07;;;4.18;;
16832;SDS011;8533;48.426;10.868;2023-06-26T12:13:54;5.65;;;4.78;;
16832;SDS011;8533;48.426;10.868;2023-06-26T12:16:20;7.07;;;5.03;;
16832;SDS011;8533;48.426;10.868;2023-06-26T12:18:46;7.65;;;5.00;;
16832;SDS011;8533;48.426;10.868;2023-06-26T12:23:59;5.25;;;4.70;;
16832;SDS011;8533;48.426;10.868;2023-06-26T12:26:25;13.35;;;4.55;;
16832;SDS011;8533;48.426;10.868;2023-06-26T12:28:52;6.07;;;4.47;;
16832;SDS011;8533;48.426;10.868;2023-06-26T12:31:19;8.35;;;4.90;;
16832;SDS011;8533;48.426;10.868;2023-06-26T12:33:46;7.10;;;4.72;;
16832;SDS011;8533;48.426;10.868;2023-06-26T12:36:13;12.38;;;5.60;;
16832;SDS011;8533;48.426;10.868;2023-06-26T12:38:39;6.05;;;4.82;;
16832;SDS011;8533;48.426;10.868;2023-06-26T12:41:05;6.40;;;5.18;;
16832;SDS011;8533;48.426;10.868;2023-06-26T12:43:37;8.30;;;4.80;;
16832;SDS011;8533;48.426;10.868;2023-06-26T12:46:03;5.47;;;4.90;;
16832;SDS011;8533;48.426;10.868;2023-06-26T12:48:38;5.43;;;4.53;;
16832;SDS011;8533;48.426;10.868;2023-06-26T12:51:14;6.55;;;4.68;;
16832;SDS011;8533;48.426;10.868;2023-06-26T12:53:41;8.68;;;5.22;;
16832;SDS011;8533;48.426;10.868;2023-06-26T12:56:07;5.82;;;4.80;;
16832;SDS011;8533;48.426;10.868;2023-06-26T12:58:36;5.35;;;4.85;;
16832;SDS011;8533;48.426;10.868;2023-06-26T13:01:03;5.25;;;4.72;;
16832;SDS011;8533;48.426;10.868;2023-06-26T13:03:30;7.85;;;4.78;;
16832;SDS011;8533;48.426;10.868;2023-06-26T13:05:56;5.28;;;4.78;;
16832;SDS011;8533;48.426;10.868;2023-06-26T13:08:21;7.03;;;4.95;;
16832;SDS011;8533;48.426;10.868;2023-06-26T13:10:46;6.90;;;5.28;;
16832;SDS011;8533;48.426;10.868;2023-06-26T13:13:12;7.03;;;5.18;;
16832;SDS011;8533;48.426;10.868;2023-06-26T13:15:38;6.97;;;5.32;;
16832;SDS011;8533;48.426;10.868;2023-06-26T13:18:03;7.25;;;5.05;;
16832;SDS011;8533;48.426;10.868;2023-06-26T13:20:28;5.93;;;5.20;;
16832;SDS011;8533;48.426;10.868;2023-06-26T13:22:54;7.43;;;4.95;;
16832;SDS011;8533;48.426;10.868;2023-06-26T13:25:20;7.07;;;5.45;;
16832;SDS011;8533;48.426;10.868;2023-06-26T13:27:46;7.70;;;5.07;;
16832;SDS011;8533;48.426;10.868;2023-06-26T13:30:12;7.85;;;5.25;;
16832;SDS011;8533;48.426;10.868;2023-06-26T13:32:37;6.85;;;5.13;;
16832;SDS011;8533;48.426;10.868;2023-06-26T13:35:03;5.93;;;5.25;;
16832;SDS011;8533;48.426;10.868;2023-06-26T13:37:29;6.43;;;4.88;;
16832;SDS011;8533;48.426;10.868;2023-06-26T13:39:54;6.32;;;5.25;;
16832;SDS011;8533;48.426;10.868;2023-06-26T13:42:20;6.70;;;5.43;;
16832;SDS011;8533;48.426;10.868;2023-06-26T13:44:45;7.70;;;5.43;;
16832;SDS011;8533;48.426;10.868;2023-06-26T13:49:37;11.50;;;5.15;;
16832;SDS011;8533;48.426;10.868;2023-06-26T13:52:03;8.47;;;5.50;;
16832;SDS011;8533;48.426;10.868;2023-06-26T13:54:28;7.47;;;5.20;;
16832;SDS011;8533;48.426;10.868;2023-06-26T13:56:54;11.77;;;6.00;;
16832;SDS011;8533;48.426;10.868;2023-06-26T13:59:22;6.17;;;5.23;;
16832;SDS011;8533;48.426;10.868;2023-06-26T14:01:50;7.13;;;5.13;;
16832;SDS011;8533;48.426;10.868;2023-06-26T14:04:15;7.27;;;5.53;;
16832;SDS011;8533;48.426;10.868;2023-06-26T14:06:40;6.93;;;5.87;;
16832;SDS011;8533;48.426;10.868;2023-06-26T14:09:07;9.57;;;6.13;;
16832;SDS011;8533;48.426;10.868;2023-06-26T14:11:33;7.53;;;5.90;;
16832;SDS011;8533;48.426;10.868;2023-06-26T14:13:59;9.77;;;6.20;;
16832;SDS011;8533;48.426;10.868;2023-06-26T14:16:24;11.50;;;6.43;;
16832;SDS011;8533;48.426;10.868;2023-06-26T14:18:50;8.77;;;5.67;;
16832;SDS011;8533;48.426;10.868;2023-06-26T14:21:15;13.07;;;6.20;;
16832;SDS011;8533;48.426;10.868;2023-06-26T14:23:41;10.00;;;5.70;;
16832;SDS011;8533;48.426;10.868;2023-06-26T14:26:06;7.63;;;5.80;;
16832;SDS011;8533;48.426;10.868;2023-06-26T14:28:31;8.47;;;5.67;;
16832;SDS011;8533;48.426;10.868;2023-06-26T14:30:57;7.10;;;5.77;;
16832;SDS011;8533;48.426;10.868;2023-06-26T14:33:22;7.13;;;5.73;;
16832;SDS011;8533;48.426;10.868;2023-06-26T14:35:47;6.87;;;5.40;;
16832;SDS011;8533;48.426;10.868;2023-06-26T14:38:12;6.63;;;5.80;;
16832;SDS011;8533;48.426;10.868;2023-06-26T14:40:38;7.03;;;5.73;;
16832;SDS011;8533;48.426;10.868;2023-06-26T14:43:03;6.80;;;5.87;;
16832;SDS011;8533;48.426;10.868;2023-06-26T14:45:28;8.43;;;6.10;;
16832;SDS011;8533;48.426;10.868;2023-06-26T14:47:53;7.87;;;5.87;;
16832;SDS011;8533;48.426;10.868;2023-06-26T14:50:19;6.47;;;5.80;;
16832;SDS011;8533;48.426;10.868;2023-06-26T14:52:44;7.90;;;6.13;;